sensor_id;sensor_type;location;lat;lon;timestamp;temperature;humidity
37285;DHT22;23172;53.550;9.964;2022-09-06T00:00:34;20.60;51.70
37285;DHT22;23172;53.550;9.964;2022-09-06T00:05:36;20.50;51.70
37285;DHT22;23172;53.550;9.964;2022-09-06T00:10:38;20.50;51.70
37285;DHT22;23172;53.550;9.964;2022-09-06T00:15:42;20.50;51.80
37285;DHT22;23172;53.550;9.964;2022-09-06T00:20:44;20.40;51.70
37285;DHT22;23172;53.550;9.964;2022-09-06T00:25:46;20.40;51.80
37285;DHT22;23172;53.550;9.964;2022-09-06T00:30:49;20.40;51.90
37285;DHT22;23172;53.550;9.964;2022-09-06T00:35:57;20.40;51.80
37285;DHT22;23172;53.550;9.964;2022-09-06T00:41:00;20.40;51.80
37285;DHT22;23172;53.550;9.964;2022-09-06T00:46:04;20.40;51.90
37285;DHT22;23172;53.550;9.964;2022-09-06T00:51:10;20.40;51.90
37285;DHT22;23172;53.550;9.964;2022-09-06T00:56:13;20.40;51.90
37285;DHT22;23172;53.550;9.964;2022-09-06T01:01:17;20.30;52.00
37285;DHT22;23172;53.550;9.964;2022-09-06T01:06:23;20.30;51.90
37285;DHT22;23172;53.550;9.964;2022-09-06T01:11:39;20.30;51.90
37285;DHT22;23172;53.550;9.964;2022-09-06T01:16:47;20.30;51.90
37285;DHT22;23172;53.550;9.964;2022-09-06T01:21:55;20.30;51.90
37285;DHT22;23172;53.550;9.964;2022-09-06T01:32:40;20.20;51.80
37285;DHT22;23172;53.550;9.964;2022-09-06T01:37:47;20.20;51.70
37285;DHT22;23172;53.550;9.964;2022-09-06T01:42:51;20.20;51.70
37285;DHT22;23172;53.550;9.964;2022-09-06T01:48:03;20.20;51.60
37285;DHT22;23172;53.550;9.964;2022-09-06T01:53:17;20.20;51.50
37285;DHT22;23172;53.550;9.964;2022-09-06T01:58:42;20.20;51.40
37285;DHT22;23172;53.550;9.964;2022-09-06T02:03:53;20.20;51.40
37285;DHT22;23172;53.550;9.964;2022-09-06T02:09:02;20.20;51.30
37285;DHT22;23172;53.550;9.964;2022-09-06T02:14:09;20.20;51.20
37285;DHT22;23172;53.550;9.964;2022-09-06T02:19:15;20.20;51.20
37285;DHT22;23172;53.550;9.964;2022-09-06T02:24:21;20.20;51.00
37285;DHT22;23172;53.550;9.964;2022-09-06T02:29:23;20.10;50.90
37285;DHT22;23172;53.550;9.964;2022-09-06T02:34:26;20.10;50.90
37285;DHT22;23172;53.550;9.964;2022-09-06T02:39:28;20.10;50.90
37285;DHT22;23172;53.550;9.964;2022-09-06T02:44:30;20.00;50.60
37285;DHT22;23172;53.550;9.964;2022-09-06T02:49:33;20.00;50.60
37285;DHT22;23172;53.550;9.964;2022-09-06T02:54:35;20.00;50.40
37285;DHT22;23172;53.550;9.964;2022-09-06T02:59:36;20.00;50.30
37285;DHT22;23172;53.550;9.964;2022-09-06T03:04:40;20.00;50.20
37285;DHT22;23172;53.550;9.964;2022-09-06T03:09:41;20.00;50.00
37285;DHT22;23172;53.550;9.964;2022-09-06T03:14:43;20.00;49.80
37285;DHT22;23172;53.550;9.964;2022-09-06T03:19:46;19.90;49.70
37285;DHT22;23172;53.550;9.964;2022-09-06T03:24:48;19.90;49.50
37285;DHT22;23172;53.550;9.964;2022-09-06T03:29:50;19.90;49.40
37285;DHT22;23172;53.550;9.964;2022-09-06T03:34:53;19.90;49.30
37285;DHT22;23172;53.550;9.964;2022-09-06T03:39:55;19.90;49.20
37285;DHT22;23172;53.550;9.964;2022-09-06T03:44:56;19.90;49.00
37285;DHT22;23172;53.550;9.964;2022-09-06T03:50:00;19.90;48.90
37285;DHT22;23172;53.550;9.964;2022-09-06T03:55:01;19.90;48.70
37285;DHT22;23172;53.550;9.964;2022-09-06T04:00:04;19.90;48.30
37285;DHT22;23172;53.550;9.964;2022-09-06T04:05:08;19.90;48.30
37285;DHT22;23172;53.550;9.964;2022-09-06T04:10:10;19.90;48.00
37285;DHT22;23172;53.550;9.964;2022-09-06T04:15:11;19.80;47.70
37285;DHT22;23172;53.550;9.964;2022-09-06T04:20:15;19.80;47.50
37285;DHT22;23172;53.550;9.964;2022-09-06T04:25:17;19.80;47.30
37285;DHT22;23172;53.550;9.964;2022-09-06T04:30:18;19.80;47.10
37285;DHT22;23172;53.550;9.964;2022-09-06T04:35:22;19.80;46.90
37285;DHT22;23172;53.550;9.964;2022-09-06T04:40:23;19.80;46.80
37285;DHT22;23172;53.550;9.964;2022-09-06T04:45:25;19.70;46.60
37285;DHT22;23172;53.550;9.964;2022-09-06T04:50:28;19.70;46.50
37285;DHT22;23172;53.550;9.964;2022-09-06T04:55:30;19.70;46.40
37285;DHT22;23172;53.550;9.964;2022-09-06T05:00:33;19.70;46.30
37285;DHT22;23172;53.550;9.964;2022-09-06T05:05:36;19.60;46.20
37285;DHT22;23172;53.550;9.964;2022-09-06T05:10:38;19.60;46.20
37285;DHT22;23172;53.550;9.964;2022-09-06T05:15:40;19.60;46.10
37285;DHT22;23172;53.550;9.964;2022-09-06T05:20:43;19.50;46.00
37285;DHT22;23172;53.550;9.964;2022-09-06T05:25:44;19.60;46.00
37285;DHT22;23172;53.550;9.964;2022-09-06T05:30:46;19.60;45.90
37285;DHT22;23172;53.550;9.964;2022-09-06T05:35:49;19.50;45.80
37285;DHT22;23172;53.550;9.964;2022-09-06T05:40:51;19.50;45.70
37285;DHT22;23172;53.550;9.964;2022-09-06T05:45:53;19.50;45.70
37285;DHT22;23172;53.550;9.964;2022-09-06T05:51:03;19.60;45.80
37285;DHT22;23172;53.550;9.964;2022-09-06T05:56:06;19.60;46.20
37285;DHT22;23172;53.550;9.964;2022-09-06T06:01:14;19.60;45.60
37285;DHT22;23172;53.550;9.964;2022-09-06T06:06:18;19.60;45.40
37285;DHT22;23172;53.550;9.964;2022-09-06T06:11:20;19.60;45.30
37285;DHT22;23172;53.550;9.964;2022-09-06T06:16:22;19.70;45.30
37285;DHT22;23172;53.550;9.964;2022-09-06T06:21:27;19.70;44.60
37285;DHT22;23172;53.550;9.964;2022-09-06T06:26:30;19.60;45.20
37285;DHT22;23172;53.550;9.964;2022-09-06T06:31:33;19.60;45.30
37285;DHT22;23172;53.550;9.964;2022-09-06T06:36:36;19.60;45.50
37285;DHT22;23172;53.550;9.964;2022-09-06T06:41:38;19.60;45.50
37285;DHT22;23172;53.550;9.964;2022-09-06T06:46:40;19.60;45.40
37285;DHT22;23172;53.550;9.964;2022-09-06T06:51:43;19.60;45.50
37285;DHT22;23172;53.550;9.964;2022-09-06T06:56:45;19.70;45.50
37285;DHT22;23172;53.550;9.964;2022-09-06T07:01:47;19.70;45.40
37285;DHT22;23172;53.550;9.964;2022-09-06T07:06:53;19.70;45.40
37285;DHT22;23172;53.550;9.964;2022-09-06T07:11:54;19.80;45.50
37285;DHT22;23172;53.550;9.964;2022-09-06T07:16:56;19.90;45.40
37285;DHT22;23172;53.550;9.964;2022-09-06T07:22:00;19.80;45.50
37285;DHT22;23172;53.550;9.964;2022-09-06T07:27:02;19.90;45.50
37285;DHT22;23172;53.550;9.964;2022-09-06T07:32:04;20.00;45.50
37285;DHT22;23172;53.550;9.964;2022-09-06T07:37:07;20.00;45.50
37285;DHT22;23172;53.550;9.964;2022-09-06T07:42:09;20.00;45.70
37285;DHT22;23172;53.550;9.964;2022-09-06T07:47:11;20.00;45.80
37285;DHT22;23172;53.550;9.964;2022-09-06T07:52:16;20.00;46.00
37285;DHT22;23172;53.550;9.964;2022-09-06T07:57:18;20.00;46.10
37285;DHT22;23172;53.550;9.964;2022-09-06T08:02:20;20.10;46.20
37285;DHT22;23172;53.550;9.964;2022-09-06T08:07:23;20.20;46.00
37285;DHT22;23172;53.550;9.964;2022-09-06T08:12:25;20.20;46.10
37285;DHT22;23172;53.550;9.964;2022-09-06T08:17:27;20.30;46.80
37285;DHT22;23172;53.550;9.964;2022-09-06T08:22:32;20.40;46.10
37285;DHT22;23172;53.550;9.964;2022-09-06T08:27:34;20.40;46.20
37285;DHT22;23172;53.550;9.964;2022-09-06T08:32:36;20.50;46.20
37285;DHT22;23172;53.550;9.964;2022-09-06T08:37:42;20.60;46.20
37285;DHT22;23172;53.550;9.964;2022-09-06T08:42:43;20.70;46.20
37285;DHT22;23172;53.550;9.964;2022-09-06T08:47:45;20.80;46.20
37285;DHT22;23172;53.550;9.964;2022-09-06T08:52:55;20.70;46.30
37285;DHT22;23172;53.550;9.964;2022-09-06T08:58:16;20.80;46.40
37285;DHT22;23172;53.550;9.964;2022-09-06T09:03:23;20.80;46.60
37285;DHT22;23172;53.550;9.964;2022-09-06T09:08:31;20.80;46.80
37285;DHT22;23172;53.550;9.964;2022-09-06T09:13:39;20.70;47.00
37285;DHT22;23172;53.550;9.964;2022-09-06T09:18:48;20.70;47.10
37285;DHT22;23172;53.550;9.964;2022-09-06T09:23:54;20.70;47.30
37285;DHT22;23172;53.550;9.964;2022-09-06T09:29:05;20.70;47.40
37285;DHT22;23172;53.550;9.964;2022-09-06T09:34:10;20.70;47.70
37285;DHT22;23172;53.550;9.964;2022-09-06T09:44:18;20.70;47.80
37285;DHT22;23172;53.550;9.964;2022-09-06T09:49:28;20.70;47.90
37285;DHT22;23172;53.550;9.964;2022-09-06T09:54:34;20.70;48.00
37285;DHT22;23172;53.550;9.964;2022-09-06T09:59:42;20.70;48.10
37285;DHT22;23172;53.550;9.964;2022-09-06T10:04:47;20.70;48.30
37285;DHT22;23172;53.550;9.964;2022-09-06T10:09:57;20.70;48.40
37285;DHT22;23172;53.550;9.964;2022-09-06T10:15:01;20.80;48.40
37285;DHT22;23172;53.550;9.964;2022-09-06T10:20:05;20.90;48.30
37285;DHT22;23172;53.550;9.964;2022-09-06T10:30:52;21.00;48.20
37285;DHT22;23172;53.550;9.964;2022-09-06T10:35:59;21.10;48.20
37285;DHT22;23172;53.550;9.964;2022-09-06T10:41:19;21.10;48.10
37285;DHT22;23172;53.550;9.964;2022-09-06T10:46:27;21.20;48.10
37285;DHT22;23172;53.550;9.964;2022-09-06T10:51:35;21.20;48.00
37285;DHT22;23172;53.550;9.964;2022-09-06T10:56:44;21.20;48.00
37285;DHT22;23172;53.550;9.964;2022-09-06T11:01:58;21.20;48.00
37285;DHT22;23172;53.550;9.964;2022-09-06T11:07:08;21.30;47.90
37285;DHT22;23172;53.550;9.964;2022-09-06T11:12:15;21.40;48.00
37285;DHT22;23172;53.550;9.964;2022-09-06T11:17:29;21.40;47.90
37285;DHT22;23172;53.550;9.964;2022-09-06T11:28:09;21.50;47.90
37285;DHT22;23172;53.550;9.964;2022-09-06T11:33:22;21.60;48.00
37285;DHT22;23172;53.550;9.964;2022-09-06T11:38:25;21.60;47.70
37285;DHT22;23172;53.550;9.964;2022-09-06T11:43:48;21.70;47.80
37285;DHT22;23172;53.550;9.964;2022-09-06T11:49:03;21.70;47.70
37285;DHT22;23172;53.550;9.964;2022-09-06T11:54:17;21.70;47.60
37285;DHT22;23172;53.550;9.964;2022-09-06T11:59:36;21.70;47.50
37285;DHT22;23172;53.550;9.964;2022-09-06T12:05:09;21.70;47.50
37285;DHT22;23172;53.550;9.964;2022-09-06T12:10:46;21.80;47.40
37285;DHT22;23172;53.550;9.964;2022-09-06T12:15:52;21.80;47.40
37285;DHT22;23172;53.550;9.964;2022-09-06T12:21:03;21.80;47.80
37285;DHT22;23172;53.550;9.964;2022-09-06T12:26:05;21.90;48.40
37285;DHT22;23172;53.550;9.964;2022-09-06T12:31:28;21.90;48.70
37285;DHT22;23172;53.550;9.964;2022-09-06T12:36:33;21.90;48.70
37285;DHT22;23172;53.550;9.964;2022-09-06T12:41:38;22.00;49.00
37285;DHT22;23172;53.550;9.964;2022-09-06T12:46:45;22.00;48.70
37285;DHT22;23172;53.550;9.964;2022-09-06T12:51:49;22.00;48.50
37285;DHT22;23172;53.550;9.964;2022-09-06T12:56:52;22.10;48.40
37285;DHT22;23172;53.550;9.964;2022-09-06T13:01:57;22.10;48.30
37285;DHT22;23172;53.550;9.964;2022-09-06T13:07:02;22.10;48.10
37285;DHT22;23172;53.550;9.964;2022-09-06T13:12:08;22.10;48.10
37285;DHT22;23172;53.550;9.964;2022-09-06T13:17:22;22.10;48.10
37285;DHT22;23172;53.550;9.964;2022-09-06T13:22:40;22.10;47.90
37285;DHT22;23172;53.550;9.964;2022-09-06T13:27:44;22.00;48.00
37285;DHT22;23172;53.550;9.964;2022-09-06T13:32:49;22.00;48.10
37285;DHT22;23172;53.550;9.964;2022-09-06T13:37:52;22.00;48.20
37285;DHT22;23172;53.550;9.964;2022-09-06T13:43:20;22.00;48.20
37285;DHT22;23172;53.550;9.964;2022-09-06T13:48:23;22.10;48.30
37285;DHT22;23172;53.550;9.964;2022-09-06T13:53:27;22.10;48.30
37285;DHT22;23172;53.550;9.964;2022-09-06T13:58:31;22.10;49.10
37285;DHT22;23172;53.550;9.964;2022-09-06T14:03:33;22.10;49.10
37285;DHT22;23172;53.550;9.964;2022-09-06T14:08:36;22.00;49.40
37285;DHT22;23172;53.550;9.964;2022-09-06T14:13:38;22.00;49.70
37285;DHT22;23172;53.550;9.964;2022-09-06T14:18:41;22.00;49.60
37285;DHT22;23172;53.550;9.964;2022-09-06T14:23:47;22.10;49.50
37285;DHT22;23172;53.550;9.964;2022-09-06T14:28:50;22.10;49.40
37285;DHT22;23172;53.550;9.964;2022-09-06T14:33:52;22.00;49.30
37285;DHT22;23172;53.550;9.964;2022-09-06T14:38:57;22.10;49.20
37285;DHT22;23172;53.550;9.964;2022-09-06T14:43:59;22.10;49.10
37285;DHT22;23172;53.550;9.964;2022-09-06T14:49:03;22.10;49.10
37285;DHT22;23172;53.550;9.964;2022-09-06T14:54:08;22.10;49.10
37285;DHT22;23172;53.550;9.964;2022-09-06T14:59:11;22.20;49.00
37285;DHT22;23172;53.550;9.964;2022-09-06T15:04:13;22.20;48.90
37285;DHT22;23172;53.550;9.964;2022-09-06T15:09:16;22.20;49.00
37285;DHT22;23172;53.550;9.964;2022-09-06T15:14:21;22.30;48.90
37285;DHT22;23172;53.550;9.964;2022-09-06T15:19:23;22.30;48.90
37285;DHT22;23172;53.550;9.964;2022-09-06T15:24:27;22.30;48.80
37285;DHT22;23172;53.550;9.964;2022-09-06T15:29:29;22.40;48.80
37285;DHT22;23172;53.550;9.964;2022-09-06T15:34:31;22.40;48.70
37285;DHT22;23172;53.550;9.964;2022-09-06T15:39:36;22.40;48.70
37285;DHT22;23172;53.550;9.964;2022-09-06T15:44:38;22.50;48.70
37285;DHT22;23172;53.550;9.964;2022-09-06T15:49:39;22.50;48.60
37285;DHT22;23172;53.550;9.964;2022-09-06T15:54:43;22.60;48.60
37285;DHT22;23172;53.550;9.964;2022-09-06T16:00:03;22.60;48.50
37285;DHT22;23172;53.550;9.964;2022-09-06T16:05:06;22.70;48.30
37285;DHT22;23172;53.550;9.964;2022-09-06T16:10:10;22.80;48.20
37285;DHT22;23172;53.550;9.964;2022-09-06T16:15:12;22.80;48.10
37285;DHT22;23172;53.550;9.964;2022-09-06T16:20:14;22.90;48.10
37285;DHT22;23172;53.550;9.964;2022-09-06T16:25:17;23.00;48.10
37285;DHT22;23172;53.550;9.964;2022-09-06T16:30:19;23.00;48.10
37285;DHT22;23172;53.550;9.964;2022-09-06T16:35:22;22.90;48.10
37285;DHT22;23172;53.550;9.964;2022-09-06T16:40:25;22.90;48.20
37285;DHT22;23172;53.550;9.964;2022-09-06T16:45:27;22.80;48.30
37285;DHT22;23172;53.550;9.964;2022-09-06T16:50:29;22.80;48.40
37285;DHT22;23172;53.550;9.964;2022-09-06T16:55:35;22.70;48.40
37285;DHT22;23172;53.550;9.964;2022-09-06T17:00:38;22.70;48.50
37285;DHT22;23172;53.550;9.964;2022-09-06T17:05:40;22.60;48.50
37285;DHT22;23172;53.550;9.964;2022-09-06T17:10:44;22.50;48.60
37285;DHT22;23172;53.550;9.964;2022-09-06T17:15:51;22.50;48.80
37285;DHT22;23172;53.550;9.964;2022-09-06T17:21:11;22.50;48.80
37285;DHT22;23172;53.550;9.964;2022-09-06T17:26:14;22.50;48.90
37285;DHT22;23172;53.550;9.964;2022-09-06T17:31:17;22.40;49.00
37285;DHT22;23172;53.550;9.964;2022-09-06T17:36:21;22.30;49.10
37285;DHT22;23172;53.550;9.964;2022-09-06T17:41:27;22.20;49.20
37285;DHT22;23172;53.550;9.964;2022-09-06T17:46:30;22.20;49.30
37285;DHT22;23172;53.550;9.964;2022-09-06T17:51:33;22.20;49.30
37285;DHT22;23172;53.550;9.964;2022-09-06T17:56:38;22.10;49.30
37285;DHT22;23172;53.550;9.964;2022-09-06T18:01:41;22.10;49.50
37285;DHT22;23172;53.550;9.964;2022-09-06T18:06:43;22.00;49.60
37285;DHT22;23172;53.550;9.964;2022-09-06T18:11:47;22.00;49.70
37285;DHT22;23172;53.550;9.964;2022-09-06T18:16:50;22.00;49.80
37285;DHT22;23172;53.550;9.964;2022-09-06T18:21:52;21.90;49.90
37285;DHT22;23172;53.550;9.964;2022-09-06T18:26:56;21.90;50.00
37285;DHT22;23172;53.550;9.964;2022-09-06T18:31:57;21.80;50.30
37285;DHT22;23172;53.550;9.964;2022-09-06T18:36:59;21.70;50.60
37285;DHT22;23172;53.550;9.964;2022-09-06T18:42:03;21.70;50.70
37285;DHT22;23172;53.550;9.964;2022-09-06T18:47:10;21.70;50.90
37285;DHT22;23172;53.550;9.964;2022-09-06T18:52:13;21.70;51.00
37285;DHT22;23172;53.550;9.964;2022-09-06T18:57:16;21.70;51.30
37285;DHT22;23172;53.550;9.964;2022-09-06T19:02:18;21.60;51.40
37285;DHT22;23172;53.550;9.964;2022-09-06T19:07:22;21.60;51.60
37285;DHT22;23172;53.550;9.964;2022-09-06T19:12:26;21.60;51.80
37285;DHT22;23172;53.550;9.964;2022-09-06T19:17:27;21.50;52.20
37285;DHT22;23172;53.550;9.964;2022-09-06T19:22:29;21.40;52.50
37285;DHT22;23172;53.550;9.964;2022-09-06T19:27:34;21.40;52.60
37285;DHT22;23172;53.550;9.964;2022-09-06T19:32:35;21.40;52.70
37285;DHT22;23172;53.550;9.964;2022-09-06T19:37:37;21.40;52.90
37285;DHT22;23172;53.550;9.964;2022-09-06T19:42:40;21.30;53.10
37285;DHT22;23172;53.550;9.964;2022-09-06T19:47:42;21.30;53.90
37285;DHT22;23172;53.550;9.964;2022-09-06T19:52:44;21.30;53.40
37285;DHT22;23172;53.550;9.964;2022-09-06T19:57:47;21.20;53.30
37285;DHT22;23172;53.550;9.964;2022-09-06T20:02:49;21.20;53.20
37285;DHT22;23172;53.550;9.964;2022-09-06T20:07:51;21.20;53.20
37285;DHT22;23172;53.550;9.964;2022-09-06T20:12:54;21.20;53.20
37285;DHT22;23172;53.550;9.964;2022-09-06T20:17:56;21.10;53.20
37285;DHT22;23172;53.550;9.964;2022-09-06T20:22:58;21.00;53.20
37285;DHT22;23172;53.550;9.964;2022-09-06T20:28:02;21.00;53.40
37285;DHT22;23172;53.550;9.964;2022-09-06T20:33:04;21.00;53.40
37285;DHT22;23172;53.550;9.964;2022-09-06T20:38:06;20.90;53.40
37285;DHT22;23172;53.550;9.964;2022-09-06T20:43:09;20.90;53.50
37285;DHT22;23172;53.550;9.964;2022-09-06T20:48:11;20.90;53.60
37285;DHT22;23172;53.550;9.964;2022-09-06T20:53:13;20.90;53.60
37285;DHT22;23172;53.550;9.964;2022-09-06T20:58:16;20.80;53.60
37285;DHT22;23172;53.550;9.964;2022-09-06T21:03:18;20.80;53.60
37285;DHT22;23172;53.550;9.964;2022-09-06T21:08:20;20.80;53.70
37285;DHT22;23172;53.550;9.964;2022-09-06T21:13:24;20.80;53.70
37285;DHT22;23172;53.550;9.964;2022-09-06T21:18:28;20.70;53.80
37285;DHT22;23172;53.550;9.964;2022-09-06T21:23:32;20.70;53.90
37285;DHT22;23172;53.550;9.964;2022-09-06T21:28:37;20.60;54.00
37285;DHT22;23172;53.550;9.964;2022-09-06T21:33:40;20.60;53.90
37285;DHT22;23172;53.550;9.964;2022-09-06T21:38:43;20.60;53.90
37285;DHT22;23172;53.550;9.964;2022-09-06T21:43:50;20.60;53.90
37285;DHT22;23172;53.550;9.964;2022-09-06T21:48:53;20.60;54.00
37285;DHT22;23172;53.550;9.964;2022-09-06T21:53:55;20.60;53.90
37285;DHT22;23172;53.550;9.964;2022-09-06T21:58:59;20.50;53.80
37285;DHT22;23172;53.550;9.964;2022-09-06T22:04:02;20.50;53.90
37285;DHT22;23172;53.550;9.964;2022-09-06T22:09:06;20.50;53.90
37285;DHT22;23172;53.550;9.964;2022-09-06T22:14:12;20.40;53.90
37285;DHT22;23172;53.550;9.964;2022-09-06T22:19:14;20.40;54.00
37285;DHT22;23172;53.550;9.964;2022-09-06T22:24:16;20.40;53.90
37285;DHT22;23172;53.550;9.964;2022-09-06T22:29:19;20.40;54.00
37285;DHT22;23172;53.550;9.964;2022-09-06T22:34:21;20.40;54.00
37285;DHT22;23172;53.550;9.964;2022-09-06T22:39:23;20.40;53.90
37285;DHT22;23172;53.550;9.964;2022-09-06T22:44:27;20.40;53.80
37285;DHT22;23172;53.550;9.964;2022-09-06T22:49:29;20.30;53.80
37285;DHT22;23172;53.550;9.964;2022-09-06T22:54:31;20.30;53.80
37285;DHT22;23172;53.550;9.964;2022-09-06T22:59:35;20.30;53.90
37285;DHT22;23172;53.550;9.964;2022-09-06T23:04:37;20.20;53.90
37285;DHT22;23172;53.550;9.964;2022-09-06T23:09:38;20.20;53.90
37285;DHT22;23172;53.550;9.964;2022-09-06T23:14:42;20.20;54.00
37285;DHT22;23172;53.550;9.964;2022-09-06T23:19:44;20.20;54.00
37285;DHT22;23172;53.550;9.964;2022-09-06T23:24:46;20.20;54.00
37285;DHT22;23172;53.550;9.964;2022-09-06T23:29:49;20.20;54.00
37285;DHT22;23172;53.550;9.964;2022-09-06T23:34:51;20.20;54.00
37285;DHT22;23172;53.550;9.964;2022-09-06T23:39:53;20.20;54.10
37285;DHT22;23172;53.550;9.964;2022-09-06T23:44:56;20.10;54.10
37285;DHT22;23172;53.550;9.964;2022-09-06T23:49:58;20.10;54.10
37285;DHT22;23172;53.550;9.964;2022-09-06T23:55:00;20.10;54.20
